sensor_id;sensor_type;location;lat;lon;timestamp;pressure;altitude;pressure_sealevel;temperature;humidity
26807;BME280;14380;49.910;6.792;2022-09-25T00:01:25;98470.97;;;13.93;100.00
26807;BME280;14380;49.910;6.792;2022-09-25T00:03:53;98472.06;;;13.91;100.00
26807;BME280;14380;49.910;6.792;2022-09-25T00:06:22;98471.03;;;13.80;100.00
26807;BME280;14380;49.910;6.792;2022-09-25T00:08:49;98477.28;;;13.68;100.00
26807;BME280;14380;49.910;6.792;2022-09-25T00:11:18;98477.81;;;13.85;100.00
26807;BME280;14380;49.910;6.792;2022-09-25T00:13:46;98473.81;;;13.79;100.00
26807;BME280;14380;49.910;6.792;2022-09-25T00:16:14;98478.16;;;13.80;100.00
26807;BME280;14380;49.910;6.792;2022-09-25T00:18:42;98484.50;;;13.53;100.00
26807;BME280;14380;49.910;6.792;2022-09-25T00:21:28;98479.28;;;13.89;100.00
26807;BME280;14380;49.910;6.792;2022-09-25T00:23:55;98479.19;;;13.90;100.00
26807;BME280;14380;49.910;6.792;2022-09-25T00:26:25;98476.34;;;13.80;100.00
26807;BME280;14380;49.910;6.792;2022-09-25T00:28:53;98477.00;;;13.84;100.00
26807;BME280;14380;49.910;6.792;2022-09-25T00:31:21;98480.91;;;13.78;100.00
26807;BME280;14380;49.910;6.792;2022-09-25T00:33:49;98481.22;;;13.87;100.00
26807;BME280;14380;49.910;6.792;2022-09-25T00:36:15;98478.41;;;13.77;100.00
26807;BME280;14380;49.910;6.792;2022-09-25T00:38:43;98487.16;;;13.66;100.00
26807;BME280;14380;49.910;6.792;2022-09-25T00:41:11;98474.50;;;13.70;100.00
26807;BME280;14380;49.910;6.792;2022-09-25T00:43:39;98482.56;;;13.68;100.00
26807;BME280;14380;49.910;6.792;2022-09-25T00:46:10;98481.81;;;13.42;100.00
26807;BME280;14380;49.910;6.792;2022-09-25T00:48:43;98481.13;;;13.38;100.00
26807;BME280;14380;49.910;6.792;2022-09-25T00:51:14;98477.22;;;13.31;100.00
26807;BME280;14380;49.910;6.792;2022-09-25T00:53:41;98475.56;;;13.67;100.00
26807;BME280;14380;49.910;6.792;2022-09-25T00:56:11;98475.19;;;13.34;100.00
26807;BME280;14380;49.910;6.792;2022-09-25T00:58:39;98473.69;;;13.56;100.00
26807;BME280;14380;49.910;6.792;2022-09-25T01:01:08;98466.38;;;13.60;100.00
26807;BME280;14380;49.910;6.792;2022-09-25T01:03:35;98469.00;;;13.60;100.00
26807;BME280;14380;49.910;6.792;2022-09-25T01:06:02;98473.16;;;13.51;100.00
26807;BME280;14380;49.910;6.792;2022-09-25T01:08:30;98478.38;;;13.52;100.00
26807;BME280;14380;49.910;6.792;2022-09-25T01:10:57;98477.41;;;13.53;100.00
26807;BME280;14380;49.910;6.792;2022-09-25T01:13:25;98467.25;;;13.34;100.00
26807;BME280;14380;49.910;6.792;2022-09-25T01:15:57;98463.97;;;13.44;100.00
26807;BME280;14380;49.910;6.792;2022-09-25T01:18:39;98470.22;;;13.30;100.00
26807;BME280;14380;49.910;6.792;2022-09-25T01:21:14;98460.66;;;13.40;100.00
26807;BME280;14380;49.910;6.792;2022-09-25T01:23:56;98464.91;;;13.30;100.00
26807;BME280;14380;49.910;6.792;2022-09-25T01:26:49;98460.78;;;13.38;100.00
26807;BME280;14380;49.910;6.792;2022-09-25T01:29:24;98459.50;;;13.44;100.00
26807;BME280;14380;49.910;6.792;2022-09-25T01:31:58;98455.47;;;13.38;100.00
26807;BME280;14380;49.910;6.792;2022-09-25T01:34:33;98456.84;;;13.31;100.00
26807;BME280;14380;49.910;6.792;2022-09-25T01:37:07;98455.06;;;13.19;100.00
26807;BME280;14380;49.910;6.792;2022-09-25T01:39:40;98454.03;;;13.21;100.00
26807;BME280;14380;49.910;6.792;2022-09-25T01:42:12;98455.47;;;13.26;100.00
26807;BME280;14380;49.910;6.792;2022-09-25T01:44:47;98455.16;;;13.30;100.00
26807;BME280;14380;49.910;6.792;2022-09-25T01:47:21;98457.06;;;13.41;100.00
26807;BME280;14380;49.910;6.792;2022-09-25T01:49:52;98453.78;;;13.37;100.00
26807;BME280;14380;49.910;6.792;2022-09-25T01:52:24;98453.56;;;13.41;100.00
26807;BME280;14380;49.910;6.792;2022-09-25T01:54:56;98446.38;;;13.43;100.00
26807;BME280;14380;49.910;6.792;2022-09-25T01:57:30;98452.06;;;13.49;100.00
26807;BME280;14380;49.910;6.792;2022-09-25T02:00:04;98450.47;;;13.47;100.00
26807;BME280;14380;49.910;6.792;2022-09-25T02:02:39;98452.91;;;13.50;100.00
26807;BME280;14380;49.910;6.792;2022-09-25T02:05:10;98446.75;;;13.49;100.00
26807;BME280;14380;49.910;6.792;2022-09-25T02:07:44;98454.22;;;13.31;100.00
26807;BME280;14380;49.910;6.792;2022-09-25T02:10:17;98458.56;;;13.32;100.00
26807;BME280;14380;49.910;6.792;2022-09-25T02:12:48;98450.25;;;13.37;100.00
26807;BME280;14380;49.910;6.792;2022-09-25T02:15:20;98449.53;;;13.35;100.00
26807;BME280;14380;49.910;6.792;2022-09-25T02:17:54;98453.59;;;13.15;100.00
26807;BME280;14380;49.910;6.792;2022-09-25T02:20:41;98455.91;;;13.32;100.00
26807;BME280;14380;49.910;6.792;2022-09-25T02:23:16;98450.16;;;13.26;100.00
26807;BME280;14380;49.910;6.792;2022-09-25T02:25:47;98456.91;;;13.18;100.00
26807;BME280;14380;49.910;6.792;2022-09-25T02:28:16;98452.91;;;13.37;100.00
26807;BME280;14380;49.910;6.792;2022-09-25T02:30:46;98458.78;;;13.42;100.00
26807;BME280;14380;49.910;6.792;2022-09-25T02:33:13;98463.72;;;13.34;100.00
26807;BME280;14380;49.910;6.792;2022-09-25T02:35:39;98461.06;;;13.47;100.00
26807;BME280;14380;49.910;6.792;2022-09-25T02:38:07;98465.03;;;13.28;100.00
26807;BME280;14380;49.910;6.792;2022-09-25T02:40:40;98461.59;;;13.39;100.00
26807;BME280;14380;49.910;6.792;2022-09-25T02:43:21;98460.13;;;13.35;100.00
26807;BME280;14380;49.910;6.792;2022-09-25T02:45:58;98455.28;;;13.42;100.00
26807;BME280;14380;49.910;6.792;2022-09-25T02:48:28;98465.91;;;13.16;100.00
26807;BME280;14380;49.910;6.792;2022-09-25T02:51:03;98457.94;;;13.16;100.00
26807;BME280;14380;49.910;6.792;2022-09-25T02:53:37;98456.50;;;12.99;100.00
26807;BME280;14380;49.910;6.792;2022-09-25T02:56:08;98448.94;;;13.18;100.00
26807;BME280;14380;49.910;6.792;2022-09-25T02:58:40;98452.72;;;13.27;100.00
26807;BME280;14380;49.910;6.792;2022-09-25T03:01:12;98453.47;;;13.29;100.00
26807;BME280;14380;49.910;6.792;2022-09-25T03:03:40;98452.03;;;13.12;100.00
26807;BME280;14380;49.910;6.792;2022-09-25T03:06:08;98458.59;;;13.19;100.00
26807;BME280;14380;49.910;6.792;2022-09-25T03:08:37;98452.13;;;13.23;100.00
26807;BME280;14380;49.910;6.792;2022-09-25T03:11:08;98457.22;;;13.01;100.00
26807;BME280;14380;49.910;6.792;2022-09-25T03:13:37;98453.28;;;13.06;100.00
26807;BME280;14380;49.910;6.792;2022-09-25T03:16:06;98448.50;;;13.12;100.00
26807;BME280;14380;49.910;6.792;2022-09-25T03:18:35;98452.81;;;13.26;100.00
26807;BME280;14380;49.910;6.792;2022-09-25T03:21:02;98456.91;;;13.18;100.00
26807;BME280;14380;49.910;6.792;2022-09-25T03:23:30;98455.94;;;13.19;100.00
26807;BME280;14380;49.910;6.792;2022-09-25T03:25:57;98462.53;;;13.01;100.00
26807;BME280;14380;49.910;6.792;2022-09-25T03:28:24;98455.72;;;13.09;100.00
26807;BME280;14380;49.910;6.792;2022-09-25T03:30:56;98462.78;;;13.35;100.00
26807;BME280;14380;49.910;6.792;2022-09-25T03:33:22;98452.72;;;13.27;100.00
26807;BME280;14380;49.910;6.792;2022-09-25T03:36:00;98443.75;;;13.54;100.00
26807;BME280;14380;49.910;6.792;2022-09-25T03:38:27;98450.38;;;13.35;100.00
26807;BME280;14380;49.910;6.792;2022-09-25T03:40:53;98448.72;;;13.21;100.00
26807;BME280;14380;49.910;6.792;2022-09-25T03:43:20;98453.13;;;13.34;100.00
26807;BME280;14380;49.910;6.792;2022-09-25T03:45:47;98448.16;;;13.42;100.00
26807;BME280;14380;49.910;6.792;2022-09-25T03:48:13;98446.91;;;13.22;100.00
26807;BME280;14380;49.910;6.792;2022-09-25T03:50:40;98441.25;;;13.27;100.00
26807;BME280;14380;49.910;6.792;2022-09-25T03:53:08;98443.84;;;13.15;100.00
26807;BME280;14380;49.910;6.792;2022-09-25T03:55:34;98453.59;;;13.15;100.00
26807;BME280;14380;49.910;6.792;2022-09-25T03:58:01;98444.91;;;13.13;100.00
26807;BME280;14380;49.910;6.792;2022-09-25T04:00:28;98449.91;;;13.17;100.00
26807;BME280;14380;49.910;6.792;2022-09-25T04:02:54;98451.50;;;13.07;100.00
26807;BME280;14380;49.910;6.792;2022-09-25T04:05:22;98445.00;;;13.24;100.00
26807;BME280;14380;49.910;6.792;2022-09-25T04:07:49;98440.44;;;13.26;100.00
26807;BME280;14380;49.910;6.792;2022-09-25T04:10:17;98441.38;;;13.25;100.00
26807;BME280;14380;49.910;6.792;2022-09-25T04:12:44;98443.69;;;13.30;100.00
26807;BME280;14380;49.910;6.792;2022-09-25T04:15:11;98452.13;;;13.23;100.00
26807;BME280;14380;49.910;6.792;2022-09-25T04:17:37;98448.06;;;13.18;100.00
26807;BME280;14380;49.910;6.792;2022-09-25T04:20:04;98440.50;;;13.37;100.00
26807;BME280;14380;49.910;6.792;2022-09-25T04:22:31;98438.69;;;13.51;100.00
26807;BME280;14380;49.910;6.792;2022-09-25T04:24:58;98445.72;;;13.26;100.00
26807;BME280;14380;49.910;6.792;2022-09-25T04:27:26;98446.13;;;13.33;100.00
26807;BME280;14380;49.910;6.792;2022-09-25T04:29:53;98437.66;;;13.41;100.00
26807;BME280;14380;49.910;6.792;2022-09-25T04:32:19;98442.09;;;13.40;100.00
26807;BME280;14380;49.910;6.792;2022-09-25T04:35:04;98439.25;;;13.43;100.00
26807;BME280;14380;49.910;6.792;2022-09-25T04:37:30;98442.44;;;13.35;100.00
26807;BME280;14380;49.910;6.792;2022-09-25T04:39:57;98446.19;;;13.57;100.00
26807;BME280;14380;49.910;6.792;2022-09-25T04:42:25;98446.84;;;13.48;100.00
26807;BME280;14380;49.910;6.792;2022-09-25T04:44:53;98444.69;;;13.42;100.00
26807;BME280;14380;49.910;6.792;2022-09-25T04:47:21;98454.03;;;13.21;100.00
26807;BME280;14380;49.910;6.792;2022-09-25T04:49:48;98454.38;;;13.54;100.00
26807;BME280;14380;49.910;6.792;2022-09-25T04:52:16;98450.25;;;13.50;100.00
26807;BME280;14380;49.910;6.792;2022-09-25T04:54:43;98451.28;;;13.60;100.00
26807;BME280;14380;49.910;6.792;2022-09-25T04:57:13;98450.38;;;13.48;100.00
26807;BME280;14380;49.910;6.792;2022-09-25T04:59:41;98447.31;;;13.42;100.00
26807;BME280;14380;49.910;6.792;2022-09-25T05:02:09;98453.03;;;13.48;100.00
26807;BME280;14380;49.910;6.792;2022-09-25T05:04:36;98455.56;;;13.50;100.00
26807;BME280;14380;49.910;6.792;2022-09-25T05:07:02;98453.94;;;13.60;100.00
26807;BME280;14380;49.910;6.792;2022-09-25T05:09:29;98455.69;;;13.48;100.00
26807;BME280;14380;49.910;6.792;2022-09-25T05:11:56;98456.59;;;13.60;100.00
26807;BME280;14380;49.910;6.792;2022-09-25T05:14:24;98457.75;;;13.56;100.00
26807;BME280;14380;49.910;6.792;2022-09-25T05:16:52;98459.81;;;13.39;100.00
26807;BME280;14380;49.910;6.792;2022-09-25T05:19:18;98458.44;;;13.34;100.00
26807;BME280;14380;49.910;6.792;2022-09-25T05:21:45;98462.56;;;13.38;100.00
26807;BME280;14380;49.910;6.792;2022-09-25T05:24:12;98460.59;;;13.42;100.00
26807;BME280;14380;49.910;6.792;2022-09-25T05:26:38;98453.88;;;13.36;100.00
26807;BME280;14380;49.910;6.792;2022-09-25T05:29:06;98458.94;;;13.39;100.00
26807;BME280;14380;49.910;6.792;2022-09-25T05:31:33;98464.28;;;13.26;100.00
26807;BME280;14380;49.910;6.792;2022-09-25T05:34:01;98462.59;;;13.25;100.00
26807;BME280;14380;49.910;6.792;2022-09-25T05:36:28;98462.16;;;13.44;100.00
26807;BME280;14380;49.910;6.792;2022-09-25T05:38:55;98464.16;;;13.41;100.00
26807;BME280;14380;49.910;6.792;2022-09-25T05:41:21;98464.38;;;13.50;100.00
26807;BME280;14380;49.910;6.792;2022-09-25T05:43:48;98463.63;;;13.35;100.00
26807;BME280;14380;49.910;6.792;2022-09-25T05:46:15;98459.59;;;13.56;100.00
26807;BME280;14380;49.910;6.792;2022-09-25T05:48:42;98464.88;;;13.56;100.00
26807;BME280;14380;49.910;6.792;2022-09-25T05:51:10;98473.28;;;13.36;100.00
26807;BME280;14380;49.910;6.792;2022-09-25T05:53:36;98458.09;;;13.51;100.00
26807;BME280;14380;49.910;6.792;2022-09-25T05:56:04;98471.25;;;13.53;100.00
26807;BME280;14380;49.910;6.792;2022-09-25T05:58:32;98470.50;;;13.51;100.00
26807;BME280;14380;49.910;6.792;2022-09-25T06:01:00;98466.72;;;13.29;100.00
26807;BME280;14380;49.910;6.792;2022-09-25T06:03:27;98469.59;;;13.26;100.00
26807;BME280;14380;49.910;6.792;2022-09-25T06:05:54;98477.94;;;13.33;100.00
26807;BME280;14380;49.910;6.792;2022-09-25T06:08:22;98479.53;;;13.48;100.00
26807;BME280;14380;49.910;6.792;2022-09-25T06:10:51;98478.38;;;13.39;100.00
26807;BME280;14380;49.910;6.792;2022-09-25T06:13:19;98482.28;;;13.34;100.00
26807;BME280;14380;49.910;6.792;2022-09-25T06:15:46;98481.88;;;13.40;100.00
26807;BME280;14380;49.910;6.792;2022-09-25T06:18:15;98482.63;;;13.42;100.00
26807;BME280;14380;49.910;6.792;2022-09-25T06:20:42;98471.25;;;13.40;100.00
26807;BME280;14380;49.910;6.792;2022-09-25T06:23:09;98481.59;;;13.45;100.00
26807;BME280;14380;49.910;6.792;2022-09-25T06:25:37;98483.78;;;13.51;100.00
26807;BME280;14380;49.910;6.792;2022-09-25T06:28:04;98483.47;;;13.30;100.00
26807;BME280;14380;49.910;6.792;2022-09-25T06:30:32;98481.13;;;13.38;100.00
26807;BME280;14380;49.910;6.792;2022-09-25T06:32:59;98488.47;;;13.47;100.00
26807;BME280;14380;49.910;6.792;2022-09-25T06:35:26;98489.16;;;13.62;100.00
26807;BME280;14380;49.910;6.792;2022-09-25T06:37:55;98492.69;;;13.50;100.00
26807;BME280;14380;49.910;6.792;2022-09-25T06:40:22;98493.75;;;13.47;100.00
26807;BME280;14380;49.910;6.792;2022-09-25T06:42:55;98490.91;;;13.37;100.00
26807;BME280;14380;49.910;6.792;2022-09-25T06:45:22;98487.28;;;13.38;100.00
26807;BME280;14380;49.910;6.792;2022-09-25T06:47:48;98487.16;;;13.66;100.00
26807;BME280;14380;49.910;6.792;2022-09-25T06:50:15;98486.50;;;13.62;100.00
26807;BME280;14380;49.910;6.792;2022-09-25T06:52:42;98485.69;;;13.36;100.00
26807;BME280;14380;49.910;6.792;2022-09-25T06:55:09;98477.50;;;13.65;100.00
26807;BME280;14380;49.910;6.792;2022-09-25T06:57:35;98492.69;;;13.50;100.00
26807;BME280;14380;49.910;6.792;2022-09-25T07:00:04;98495.84;;;13.55;100.00
26807;BME280;14380;49.910;6.792;2022-09-25T07:02:31;98492.09;;;13.71;100.00
26807;BME280;14380;49.910;6.792;2022-09-25T07:05:15;98496.16;;;13.63;100.00
26807;BME280;14380;49.910;6.792;2022-09-25T07:07:43;98490.63;;;13.66;100.00
26807;BME280;14380;49.910;6.792;2022-09-25T07:10:10;98490.56;;;13.79;100.00
26807;BME280;14380;49.910;6.792;2022-09-25T07:12:37;98496.50;;;13.59;100.00
26807;BME280;14380;49.910;6.792;2022-09-25T07:15:08;98495.31;;;13.63;100.00
26807;BME280;14380;49.910;6.792;2022-09-25T07:17:35;98500.75;;;13.86;100.00
26807;BME280;14380;49.910;6.792;2022-09-25T07:20:02;98502.00;;;13.93;100.00
26807;BME280;14380;49.910;6.792;2022-09-25T07:22:29;98496.75;;;13.80;100.00
26807;BME280;14380;49.910;6.792;2022-09-25T07:24:55;98503.69;;;13.70;100.00
26807;BME280;14380;49.910;6.792;2022-09-25T07:27:24;98497.28;;;13.72;100.00
26807;BME280;14380;49.910;6.792;2022-09-25T07:29:51;98500.97;;;13.82;100.00
26807;BME280;14380;49.910;6.792;2022-09-25T07:32:19;98501.84;;;13.70;100.00
26807;BME280;14380;49.910;6.792;2022-09-25T07:34:45;98502.09;;;13.67;100.00
26807;BME280;14380;49.910;6.792;2022-09-25T07:37:14;98499.66;;;13.64;100.00
26807;BME280;14380;49.910;6.792;2022-09-25T07:39:41;98501.84;;;13.70;100.00
26807;BME280;14380;49.910;6.792;2022-09-25T07:42:08;98502.44;;;14.11;100.00
26807;BME280;14380;49.910;6.792;2022-09-25T07:44:35;98513.88;;;14.00;100.00
26807;BME280;14380;49.910;6.792;2022-09-25T07:47:01;98506.63;;;14.26;100.00
26807;BME280;14380;49.910;6.792;2022-09-25T07:49:31;98508.03;;;14.19;100.00
26807;BME280;14380;49.910;6.792;2022-09-25T07:51:57;98509.72;;;14.20;100.00
26807;BME280;14380;49.910;6.792;2022-09-25T07:54:24;98511.88;;;13.91;100.00
26807;BME280;14380;49.910;6.792;2022-09-25T07:56:51;98513.28;;;14.08;100.00
26807;BME280;14380;49.910;6.792;2022-09-25T07:59:17;98516.22;;;14.40;100.00
26807;BME280;14380;49.910;6.792;2022-09-25T08:01:44;98505.38;;;13.71;100.00
26807;BME280;14380;49.910;6.792;2022-09-25T08:04:11;98511.53;;;13.95;100.00
26807;BME280;14380;49.910;6.792;2022-09-25T08:06:39;98516.59;;;14.23;100.00
26807;BME280;14380;49.910;6.792;2022-09-25T08:09:05;98514.41;;;13.92;100.00
26807;BME280;14380;49.910;6.792;2022-09-25T08:11:33;98517.25;;;14.02;100.00
26807;BME280;14380;49.910;6.792;2022-09-25T08:14:00;98523.97;;;13.95;100.00
26807;BME280;14380;49.910;6.792;2022-09-25T08:16:28;98528.63;;;13.91;100.00
26807;BME280;14380;49.910;6.792;2022-09-25T08:18:55;98525.25;;;14.13;100.00
26807;BME280;14380;49.910;6.792;2022-09-25T08:21:28;98527.06;;;14.13;100.00
26807;BME280;14380;49.910;6.792;2022-09-25T08:24:00;98534.00;;;13.78;100.00
26807;BME280;14380;49.910;6.792;2022-09-25T08:26:26;98529.63;;;13.90;100.00
26807;BME280;14380;49.910;6.792;2022-09-25T08:28:55;98536.28;;;13.96;100.00
26807;BME280;14380;49.910;6.792;2022-09-25T08:31:21;98535.94;;;14.01;100.00
26807;BME280;14380;49.910;6.792;2022-09-25T08:33:49;98533.50;;;14.22;100.00
26807;BME280;14380;49.910;6.792;2022-09-25T08:36:16;98543.56;;;14.05;100.00
26807;BME280;14380;49.910;6.792;2022-09-25T08:38:43;98538.81;;;13.97;100.00
26807;BME280;14380;49.910;6.792;2022-09-25T08:41:16;98533.34;;;14.12;100.00
26807;BME280;14380;49.910;6.792;2022-09-25T08:43:51;98541.91;;;13.91;100.00
26807;BME280;14380;49.910;6.792;2022-09-25T08:46:23;98538.06;;;13.95;100.00
26807;BME280;14380;49.910;6.792;2022-09-25T08:49:11;98537.81;;;14.11;100.00
26807;BME280;14380;49.910;6.792;2022-09-25T08:51:41;98538.50;;;14.38;100.00
26807;BME280;14380;49.910;6.792;2022-09-25T08:54:11;98534.59;;;14.19;100.00
26807;BME280;14380;49.910;6.792;2022-09-25T08:56:42;98540.94;;;14.41;100.00
26807;BME280;14380;49.910;6.792;2022-09-25T08:59:18;98536.50;;;14.41;100.00
26807;BME280;14380;49.910;6.792;2022-09-25T09:01:49;98540.69;;;14.33;100.00
26807;BME280;14380;49.910;6.792;2022-09-25T09:04:23;98543.81;;;14.38;100.00
26807;BME280;14380;49.910;6.792;2022-09-25T09:06:52;98547.66;;;14.22;100.00
26807;BME280;14380;49.910;6.792;2022-09-25T09:09:24;98540.63;;;14.46;100.00
26807;BME280;14380;49.910;6.792;2022-09-25T09:11:58;98547.34;;;14.38;100.00
26807;BME280;14380;49.910;6.792;2022-09-25T09:14:29;98548.31;;;14.37;100.00
26807;BME280;14380;49.910;6.792;2022-09-25T09:16:58;98548.59;;;14.46;100.00
26807;BME280;14380;49.910;6.792;2022-09-25T09:19:26;98549.41;;;14.46;100.00
26807;BME280;14380;49.910;6.792;2022-09-25T09:22:00;98552.13;;;14.57;100.00
26807;BME280;14380;49.910;6.792;2022-09-25T09:24:45;98547.50;;;14.48;100.00
26807;BME280;14380;49.910;6.792;2022-09-25T09:27:30;98561.69;;;14.36;100.00
26807;BME280;14380;49.910;6.792;2022-09-25T09:30:11;98555.91;;;14.31;100.00
26807;BME280;14380;49.910;6.792;2022-09-25T09:33:06;98553.56;;;14.26;100.00
26807;BME280;14380;49.910;6.792;2022-09-25T09:35:43;98555.09;;;14.41;100.00
26807;BME280;14380;49.910;6.792;2022-09-25T09:38:22;98556.56;;;14.21;100.00
26807;BME280;14380;49.910;6.792;2022-09-25T09:41:15;98551.63;;;14.28;100.00
26807;BME280;14380;49.910;6.792;2022-09-25T09:43:59;98543.16;;;14.47;100.00
26807;BME280;14380;49.910;6.792;2022-09-25T09:46:37;98550.56;;;14.55;100.00
26807;BME280;14380;49.910;6.792;2022-09-25T09:49:12;98549.13;;;14.38;100.00
26807;BME280;14380;49.910;6.792;2022-09-25T09:51:47;98553.16;;;14.43;100.00
26807;BME280;14380;49.910;6.792;2022-09-25T09:54:19;98556.44;;;14.47;100.00
26807;BME280;14380;49.910;6.792;2022-09-25T09:56:49;98555.03;;;14.30;100.00
26807;BME280;14380;49.910;6.792;2022-09-25T09:59:20;98561.00;;;14.45;100.00
26807;BME280;14380;49.910;6.792;2022-09-25T10:01:59;98559.41;;;14.67;100.00
26807;BME280;14380;49.910;6.792;2022-09-25T10:04:31;98556.97;;;14.64;100.00
26807;BME280;14380;49.910;6.792;2022-09-25T10:07:03;98554.53;;;14.85;100.00
26807;BME280;14380;49.910;6.792;2022-09-25T10:09:30;98564.75;;;14.42;100.00
26807;BME280;14380;49.910;6.792;2022-09-25T10:12:00;98561.97;;;14.44;100.00
26807;BME280;14380;49.910;6.792;2022-09-25T10:14:32;98559.41;;;14.67;100.00
26807;BME280;14380;49.910;6.792;2022-09-25T10:17:02;98568.75;;;14.24;100.00
26807;BME280;14380;49.910;6.792;2022-09-25T10:19:41;98562.56;;;14.36;100.00
26807;BME280;14380;49.910;6.792;2022-09-25T10:22:14;98562.41;;;14.38;100.00
26807;BME280;14380;49.910;6.792;2022-09-25T10:24:46;98563.06;;;14.17;100.00
26807;BME280;14380;49.910;6.792;2022-09-25T10:27:21;98566.31;;;14.21;100.00
26807;BME280;14380;49.910;6.792;2022-09-25T10:30:12;98571.03;;;14.41;100.00
26807;BME280;14380;49.910;6.792;2022-09-25T10:32:42;98576.59;;;13.64;100.00
26807;BME280;14380;49.910;6.792;2022-09-25T10:35:14;98578.66;;;13.85;100.00
26807;BME280;14380;49.910;6.792;2022-09-25T10:37:43;98582.09;;;13.74;100.00
26807;BME280;14380;49.910;6.792;2022-09-25T10:40:23;98582.97;;;13.35;100.00
26807;BME280;14380;49.910;6.792;2022-09-25T10:43:01;98582.88;;;13.63;100.00
26807;BME280;14380;49.910;6.792;2022-09-25T10:45:32;98584.31;;;13.80;100.00
26807;BME280;14380;49.910;6.792;2022-09-25T10:47:59;98582.84;;;13.76;100.00
26807;BME280;14380;49.910;6.792;2022-09-25T10:50:43;98595.19;;;13.64;100.00
26807;BME280;14380;49.910;6.792;2022-09-25T10:53:24;98578.16;;;13.79;100.00
26807;BME280;14380;49.910;6.792;2022-09-25T10:55:59;98576.59;;;13.51;100.00
26807;BME280;14380;49.910;6.792;2022-09-25T10:58:30;98580.28;;;13.87;100.00
26807;BME280;14380;49.910;6.792;2022-09-25T11:01:02;98580.38;;;13.86;100.00
26807;BME280;14380;49.910;6.792;2022-09-25T11:03:32;98589.00;;;13.63;100.00
26807;BME280;14380;49.910;6.792;2022-09-25T11:06:02;98593.13;;;13.80;100.00
26807;BME280;14380;49.910;6.792;2022-09-25T11:08:33;98596.25;;;13.98;100.00
26807;BME280;14380;49.910;6.792;2022-09-25T11:11:03;98600.16;;;13.56;100.00
26807;BME280;14380;49.910;6.792;2022-09-25T11:13:38;98595.66;;;13.82;100.00
26807;BME280;14380;49.910;6.792;2022-09-25T11:16:10;98592.50;;;13.77;100.00
26807;BME280;14380;49.910;6.792;2022-09-25T11:18:40;98600.97;;;13.82;100.00
26807;BME280;14380;49.910;6.792;2022-09-25T11:21:17;98597.16;;;13.86;100.00
26807;BME280;14380;49.910;6.792;2022-09-25T11:23:56;98603.25;;;14.00;100.00
26807;BME280;14380;49.910;6.792;2022-09-25T11:26:29;98604.13;;;14.00;100.00
26807;BME280;14380;49.910;6.792;2022-09-25T11:29:02;98602.53;;;14.22;100.00
26807;BME280;14380;49.910;6.792;2022-09-25T11:31:37;98606.97;;;14.34;100.00
26807;BME280;14380;49.910;6.792;2022-09-25T11:34:13;98598.59;;;14.52;100.00
26807;BME280;14380;49.910;6.792;2022-09-25T11:36:45;98595.94;;;14.52;100.00
26807;BME280;14380;49.910;6.792;2022-09-25T11:39:19;98594.88;;;14.54;100.00
26807;BME280;14380;49.910;6.792;2022-09-25T11:42:12;98598.38;;;14.55;100.00
26807;BME280;14380;49.910;6.792;2022-09-25T11:44:45;98591.38;;;14.78;100.00
26807;BME280;14380;49.910;6.792;2022-09-25T11:47:24;98589.81;;;14.63;100.00
26807;BME280;14380;49.910;6.792;2022-09-25T11:49:53;98587.84;;;14.78;100.00
26807;BME280;14380;49.910;6.792;2022-09-25T11:52:29;98590.69;;;14.39;100.00
26807;BME280;14380;49.910;6.792;2022-09-25T11:55:34;98584.91;;;14.45;100.00
26807;BME280;14380;49.910;6.792;2022-09-25T11:58:19;98591.97;;;14.82;100.00
26807;BME280;14380;49.910;6.792;2022-09-25T12:00:57;98585.69;;;14.58;100.00
26807;BME280;14380;49.910;6.792;2022-09-25T12:03:35;98597.28;;;14.57;100.00
26807;BME280;14380;49.910;6.792;2022-09-25T12:06:19;98602.75;;;14.32;100.00
26807;BME280;14380;49.910;6.792;2022-09-25T12:09:00;98597.19;;;14.35;100.00
26807;BME280;14380;49.910;6.792;2022-09-25T12:11:34;98598.03;;;14.60;100.00
26807;BME280;14380;49.910;6.792;2022-09-25T12:14:14;98598.19;;;14.21;98.94
26807;BME280;14380;49.910;6.792;2022-09-25T12:16:48;98584.13;;;14.56;100.00
26807;BME280;14380;49.910;6.792;2022-09-25T12:19:29;98582.78;;;14.26;98.08
26807;BME280;14380;49.910;6.792;2022-09-25T12:22:06;98580.28;;;14.36;100.00
26807;BME280;14380;49.910;6.792;2022-09-25T12:24:47;98589.50;;;14.43;98.05
26807;BME280;14380;49.910;6.792;2022-09-25T12:27:21;98581.00;;;14.38;97.67
26807;BME280;14380;49.910;6.792;2022-09-25T12:30:03;98575.06;;;14.58;98.26
26807;BME280;14380;49.910;6.792;2022-09-25T12:32:53;98572.03;;;14.87;100.00
26807;BME280;14380;49.910;6.792;2022-09-25T12:35:36;98578.56;;;14.83;100.00
26807;BME280;14380;49.910;6.792;2022-09-25T12:38:10;98571.53;;;14.47;95.76
26807;BME280;14380;49.910;6.792;2022-09-25T12:40:43;98573.22;;;14.72;95.56
26807;BME280;14380;49.910;6.792;2022-09-25T12:43:15;98568.72;;;15.08;98.67
26807;BME280;14380;49.910;6.792;2022-09-25T12:45:46;98565.84;;;15.23;98.79
26807;BME280;14380;49.910;6.792;2022-09-25T12:48:16;98558.00;;;15.44;100.00
26807;BME280;14380;49.910;6.792;2022-09-25T12:50:51;98567.66;;;15.34;98.60
26807;BME280;14380;49.910;6.792;2022-09-25T12:53:24;98560.63;;;15.67;100.00
26807;BME280;14380;49.910;6.792;2022-09-25T12:55:56;98566.69;;;15.57;98.01
26807;BME280;14380;49.910;6.792;2022-09-25T12:58:35;98568.75;;;15.42;99.35
26807;BME280;14380;49.910;6.792;2022-09-25T13:01:10;98558.59;;;15.48;92.55
26807;BME280;14380;49.910;6.792;2022-09-25T13:06:33;98561.63;;;15.88;96.47
26807;BME280;14380;49.910;6.792;2022-09-25T13:09:09;98559.19;;;15.85;96.78
26807;BME280;14380;49.910;6.792;2022-09-25T13:11:42;98548.28;;;15.77;90.62
26807;BME280;14380;49.910;6.792;2022-09-25T13:14:26;98550.56;;;16.04;99.01